Time;durP1;ratioP1;P1;durP2;ratioP2;P2;SDS_P1;SDS_P2;PMS_P1;PMS_P2;Temp;Humidity;BMP_temperature;BMP_pressure;BME280_temperature;BME280_humidity;BME280_pressure;Samples;Min_cycle;Max_cycle;Signal;HPM_P1;HPM_P2
2022/03/22 00:01:08;;;;;;;10.00;8.27;;;11.00;82.10;;;;;;5023255;28;20458;-73
2022/03/22 00:03:35;;;;;;;9.00;7.70;;;11.00;82.30;;;;;;5019566;28;20492;-72
2022/03/22 00:06:02;;;;;;;10.50;7.07;;;10.90;82.30;;;;;;5024690;28;20469;-72
2022/03/22 00:08:29;;;;;;;12.03;8.07;;;10.90;82.40;;;;;;5021021;28;20577;-73
2022/03/22 00:10:56;;;;;;;9.07;7.10;;;10.80;82.40;;;;;;5021491;28;20523;-73
2022/03/22 00:13:23;;;;;;;9.50;7.47;;;10.80;82.90;;;;;;5020636;28;20468;-72
2022/03/22 00:15:50;;;;;;;9.13;8.00;;;10.80;82.70;;;;;;5021650;28;20845;-73
2022/03/22 00:18:19;;;;;;;9.37;7.47;;;10.70;83.10;;;;;;5029468;28;20566;-72
2022/03/22 00:20:45;;;;;;;10.53;7.10;;;10.70;83.20;;;;;;5019929;28;20465;-73
2022/03/22 00:23:13;;;;;;;9.30;6.90;;;10.60;83.50;;;;;;5022166;28;20437;-73
2022/03/22 00:25:39;;;;;;;12.50;7.93;;;10.50;84.00;;;;;;5022197;28;20461;-73
2022/03/22 00:28:06;;;;;;;8.90;6.67;;;10.40;84.30;;;;;;5020647;28;20574;-73
2022/03/22 00:30:34;;;;;;;12.00;8.37;;;10.40;84.60;;;;;;5021233;28;20472;-73
2022/03/22 00:33:03;;;;;;;9.60;6.77;;;10.30;84.40;;;;;;5013348;28;20582;-74
2022/03/22 00:35:36;;;;;;;8.67;6.87;;;10.20;84.60;;;;;;5021578;28;20530;-71
2022/03/22 00:38:04;;;;;;;10.53;8.00;;;10.20;85.00;;;;;;5016371;28;20551;-73
2022/03/22 00:40:31;;;;;;;17.40;7.80;;;10.20;85.00;;;;;;5020149;28;20488;-73
2022/03/22 00:42:58;;;;;;;10.83;8.47;;;10.20;85.50;;;;;;5023620;28;20495;-73
2022/03/22 00:45:27;;;;;;;10.90;7.37;;;10.20;84.80;;;;;;5013673;28;20465;-73
2022/03/22 00:47:55;;;;;;;9.97;7.80;;;10.10;84.70;;;;;;5016800;28;20465;-73
2022/03/22 00:50:26;;;;;;;9.63;7.53;;;10.10;84.90;;;;;;5021589;28;20477;-74
2022/03/22 00:52:54;;;;;;;9.77;7.50;;;10.10;84.90;;;;;;5021584;28;20631;-73
2022/03/22 00:55:23;;;;;;;11.93;8.30;;;10.00;85.00;;;;;;5021683;28;20572;-73
2022/03/22 00:57:51;;;;;;;8.90;6.90;;;10.00;85.00;;;;;;5015641;28;20901;-73
2022/03/22 01:00:19;;;;;;;11.73;7.47;;;10.00;85.70;;;;;;5020678;28;20465;-73
2022/03/22 01:02:49;;;;;;;9.13;6.60;;;9.90;86.10;;;;;;5025326;28;20563;-73
2022/03/22 01:05:19;;;;;;;8.83;7.23;;;9.90;86.00;;;;;;5016042;28;20988;-73
2022/03/22 01:07:47;;;;;;;11.10;7.43;;;9.90;86.20;;;;;;5030027;28;20449;-73
2022/03/22 01:10:17;;;;;;;11.23;7.47;;;9.80;85.90;;;;;;5022182;28;21041;-72
2022/03/22 01:12:44;;;;;;;7.80;5.93;;;9.80;86.00;;;;;;5020593;28;20565;-73
2022/03/22 01:15:15;;;;;;;8.13;7.20;;;9.90;85.80;;;;;;5020769;28;20854;-72
2022/03/22 01:17:42;;;;;;;8.10;6.65;;;9.80;85.90;;;;;;5020040;28;20444;-73
2022/03/22 01:20:10;;;;;;;7.60;6.77;;;9.80;85.70;;;;;;5017355;28;20227;-73
2022/03/22 01:22:38;;;;;;;14.70;7.27;;;9.90;85.30;;;;;;5021282;28;20529;-72
2022/03/22 01:25:07;;;;;;;8.10;6.65;;;9.90;85.40;;;;;;5018637;28;20505;-73
2022/03/22 01:27:36;;;;;;;7.77;7.07;;;9.90;86.30;;;;;;5020539;28;20213;-72
2022/03/22 01:30:03;;;;;;;12.23;8.00;;;9.80;85.50;;;;;;5013566;28;20485;-71
2022/03/22 01:32:30;;;;;;;8.93;7.05;;;9.80;85.60;;;;;;5021301;28;20481;-71
2022/03/22 01:34:57;;;;;;;9.32;8.45;;;9.70;85.60;;;;;;5014427;28;20253;-71
2022/03/22 01:37:23;;;;;;;12.18;7.70;;;9.80;85.50;;;;;;5011701;28;20632;-71
2022/03/22 01:39:50;;;;;;;11.87;8.50;;;9.80;85.80;;;;;;5015342;28;20703;-71
2022/03/22 01:42:17;;;;;;;12.43;7.20;;;9.70;85.70;;;;;;5021017;28;20469;-71
2022/03/22 01:44:45;;;;;;;9.02;7.88;;;9.70;85.90;;;;;;5017496;28;20536;-71
2022/03/22 01:47:12;;;;;;;8.73;6.20;;;9.60;85.80;;;;;;5018183;28;20206;-72
2022/03/22 01:49:41;;;;;;;7.90;6.77;;;9.60;86.00;;;;;;5013233;28;20801;-71
2022/03/22 01:52:09;;;;;;;8.97;6.70;;;9.60;86.20;;;;;;5021995;28;20580;-70
2022/03/22 01:54:36;;;;;;;8.65;7.20;;;9.60;86.00;;;;;;5018677;28;20476;-70
2022/03/22 01:57:03;;;;;;;7.80;6.82;;;9.60;85.70;;;;;;5018338;28;20218;-71
2022/03/22 01:59:30;;;;;;;7.72;6.93;;;9.60;86.00;;;;;;5011025;28;20790;-71
2022/03/22 02:07:35;;;;;;;12.98;7.03;;;9.40;86.10;;;;;;5024479;28;20251;-72
2022/03/22 02:10:01;;;;;;;8.45;6.97;;;9.30;86.50;;;;;;5019770;28;20287;-72
2022/03/22 02:12:28;;;;;;;10.30;7.35;;;9.30;86.50;;;;;;5017886;28;20230;-70
2022/03/22 02:14:55;;;;;;;8.05;6.40;;;9.30;86.70;;;;;;5021762;28;20303;-71
2022/03/22 02:17:23;;;;;;;8.15;6.85;;;9.30;86.80;;;;;;5024514;28;20272;-72
2022/03/22 02:19:49;;;;;;;8.15;6.55;;;9.20;86.70;;;;;;5022944;28;20748;-71
2022/03/22 02:22:18;;;;;;;8.55;7.55;;;9.20;86.60;;;;;;5026600;28;20298;-69
2022/03/22 02:24:46;;;;;;;9.60;7.45;;;9.20;86.80;;;;;;5023661;28;20663;-72
2022/03/22 02:27:13;;;;;;;6.97;6.25;;;9.20;87.10;;;;;;5021794;28;20829;-71
2022/03/22 02:29:39;;;;;;;7.53;6.40;;;9.20;86.90;;;;;;5022659;28;20323;-71
2022/03/22 02:32:07;;;;;;;11.95;7.95;;;9.10;86.70;;;;;;5023595;28;20296;-72
2022/03/22 02:34:36;;;;;;;7.75;6.55;;;9.10;86.70;;;;;;5018056;28;20285;-71
2022/03/22 02:37:04;;;;;;;19.00;7.95;;;9.10;86.50;;;;;;5020688;28;20249;-71
2022/03/22 02:39:31;;;;;;;8.50;6.90;;;9.10;86.50;;;;;;5022379;28;20233;-70
2022/03/22 02:41:59;;;;;;;8.02;6.70;;;9.10;86.40;;;;;;5024113;28;20246;-71
2022/03/22 02:44:26;;;;;;;7.72;6.45;;;9.00;86.20;;;;;;5019436;28;20633;-71
2022/03/22 02:46:53;;;;;;;8.30;6.85;;;9.00;86.10;;;;;;5022312;28;20206;-71
2022/03/22 02:49:19;;;;;;;8.85;6.32;;;9.00;86.50;;;;;;5024362;28;20253;-69
2022/03/22 02:51:46;;;;;;;9.57;7.30;;;8.90;86.20;;;;;;5023821;28;20261;-70
2022/03/22 02:54:13;;;;;;;9.30;6.75;;;8.90;86.10;;;;;;5023053;28;20312;-70
2022/03/22 02:56:39;;;;;;;7.25;5.88;;;8.90;86.40;;;;;;5018143;28;20218;-70
2022/03/22 02:59:08;;;;;;;10.55;6.65;;;8.90;86.40;;;;;;5013869;28;20291;-73
2022/03/22 03:01:35;;;;;;;8.15;6.63;;;8.90;86.80;;;;;;5012635;28;20338;-72
2022/03/22 03:04:01;;;;;;;7.43;6.43;;;8.80;86.70;;;;;;5021573;28;20342;-72
2022/03/22 03:06:29;;;;;;;8.65;6.60;;;8.80;86.80;;;;;;5023259;28;20206;-71
2022/03/22 03:08:57;;;;;;;7.95;6.53;;;8.70;86.70;;;;;;5023165;28;20224;-71
2022/03/22 03:11:24;;;;;;;5.80;5.20;;;8.60;86.90;;;;;;5022786;28;20261;-70
2022/03/22 03:16:39;;;;;;;8.85;6.60;;;8.60;86.80;;;;;;5024907;28;20225;-71
2022/03/22 03:19:06;;;;;;;7.53;6.32;;;8.50;87.40;;;;;;5025150;28;20250;-71
2022/03/22 03:21:32;;;;;;;9.07;7.03;;;8.50;87.20;;;;;;5024414;28;20211;-69
2022/03/22 03:23:59;;;;;;;9.82;7.63;;;8.50;87.20;;;;;;5023603;28;20221;-71
2022/03/22 03:26:26;;;;;;;10.15;7.38;;;8.40;87.40;;;;;;5023212;28;20232;-72
2022/03/22 03:28:53;;;;;;;7.63;6.30;;;8.40;87.20;;;;;;5021634;28;20245;-71
2022/03/22 03:31:19;;;;;;;7.32;6.22;;;8.40;87.20;;;;;;5020427;28;20210;-72
2022/03/22 03:33:47;;;;;;;9.75;7.80;;;8.40;87.00;;;;;;5033691;28;20601;-71
2022/03/22 03:36:14;;;;;;;7.95;6.10;;;8.50;86.80;;;;;;5016096;28;20253;-71
2022/03/22 03:38:42;;;;;;;8.77;6.88;;;8.40;86.90;;;;;;5025400;28;20219;-71
2022/03/22 03:43:53;;;;;;;7.68;6.90;;;8.40;86.80;;;;;;5019448;28;20221;-72
2022/03/22 03:49:06;;;;;;;7.88;7.07;;;8.30;87.00;;;;;;5016228;28;20681;-71
2022/03/22 03:51:33;;;;;;;11.45;6.72;;;8.20;87.50;;;;;;5022142;28;20207;-71
2022/03/22 03:54:00;;;;;;;10.38;6.50;;;8.20;87.50;;;;;;5027576;28;20229;-71
2022/03/22 03:56:27;;;;;;;8.18;6.05;;;8.10;87.50;;;;;;5022920;28;20587;-72
2022/03/22 03:58:56;;;;;;;6.38;5.60;;;8.20;87.40;;;;;;5025894;28;20226;-71
2022/03/22 04:01:22;;;;;;;8.70;6.72;;;8.20;87.20;;;;;;5021069;28;20668;-71
2022/03/22 04:03:49;;;;;;;6.85;6.22;;;8.20;87.10;;;;;;5015913;28;20210;-71
2022/03/22 04:06:17;;;;;;;7.80;6.95;;;8.10;87.20;;;;;;5022389;28;20198;-70
2022/03/22 04:08:44;;;;;;;11.88;6.65;;;8.10;87.40;;;;;;5021664;28;20238;-71
2022/03/22 04:11:11;;;;;;;7.45;6.03;;;8.10;87.20;;;;;;5023222;28;20630;-71
2022/03/22 04:13:38;;;;;;;7.90;6.97;;;8.10;87.20;;;;;;5023719;28;20229;-70
2022/03/22 04:16:05;;;;;;;10.55;6.45;;;8.20;86.70;;;;;;5027596;28;20217;-70
2022/03/22 04:18:32;;;;;;;8.43;6.60;;;8.10;86.80;;;;;;5023043;28;20305;-70
2022/03/22 04:20:59;;;;;;;7.10;6.13;;;8.10;86.70;;;;;;5023063;28;20662;-72
2022/03/22 04:23:27;;;;;;;11.07;6.22;;;8.10;87.40;;;;;;5018624;28;20204;-72
2022/03/22 04:25:54;;;;;;;12.50;7.13;;;8.10;86.20;;;;;;5022732;28;20287;-71
2022/03/22 04:33:50;;;;;;;11.93;7.07;;;8.20;85.30;;;;;;5021000;28;20639;-71
2022/03/22 04:36:17;;;;;;;7.93;6.45;;;8.20;85.00;;;;;;5020398;28;20703;-71
2022/03/22 04:38:45;;;;;;;7.70;6.00;;;8.20;85.00;;;;;;5020482;28;20227;-71
2022/03/22 04:41:11;;;;;;;10.27;7.57;;;8.20;85.10;;;;;;5013901;28;20664;-71
2022/03/22 04:43:38;;;;;;;6.90;6.20;;;8.20;85.20;;;;;;5022229;28;20249;-70
2022/03/22 04:46:06;;;;;;;8.55;7.15;;;8.20;85.30;;;;;;5018550;28;20199;-73
2022/03/22 04:48:33;;;;;;;6.60;5.65;;;8.10;86.20;;;;;;5020053;28;21042;-71
2022/03/22 04:56:46;;;;;;;10.98;6.40;;;8.10;85.10;;;;;;5020914;28;20307;-72
2022/03/22 04:59:13;;;;;;;6.07;5.10;;;8.10;85.30;;;;;;5020156;28;20240;-72
2022/03/22 05:01:40;;;;;;;6.38;5.80;;;8.00;85.90;;;;;;5030618;28;20198;-73
2022/03/22 05:04:07;;;;;;;7.63;6.63;;;8.10;85.60;;;;;;5021732;28;20202;-72
2022/03/22 05:06:35;;;;;;;6.10;5.50;;;8.00;85.80;;;;;;5019016;28;20689;-74
2022/03/22 05:09:04;;;;;;;8.85;6.15;;;8.00;86.10;;;;;;5022238;28;20380;-73
2022/03/22 05:11:31;;;;;;;8.93;7.40;;;7.90;86.20;;;;;;5021028;28;20287;-73
2022/03/22 05:13:58;;;;;;;6.68;5.97;;;7.90;86.50;;;;;;5010145;28;20240;-72
2022/03/22 05:16:24;;;;;;;6.78;6.05;;;7.90;86.40;;;;;;5018581;28;20663;-72
2022/03/22 05:18:51;;;;;;;8.13;6.28;;;7.90;86.50;;;;;;5022519;28;20221;-73
2022/03/22 05:21:18;;;;;;;7.85;6.53;;;7.90;86.50;;;;;;5021294;28;20217;-73
2022/03/22 05:23:45;;;;;;;9.95;7.20;;;7.90;86.70;;;;;;5019502;28;20691;-72
2022/03/22 05:26:14;;;;;;;6.70;5.50;;;7.90;86.70;;;;;;5021197;28;20285;-71
2022/03/22 05:28:41;;;;;;;9.13;6.30;;;7.80;86.90;;;;;;5014556;28;20583;-71
2022/03/22 05:31:10;;;;;;;6.72;6.03;;;7.80;87.90;;;;;;5015491;28;20814;-72
2022/03/22 05:33:36;;;;;;;6.88;5.97;;;7.80;87.60;;;;;;5013374;28;20987;-72
2022/03/22 05:36:04;;;;;;;8.65;6.80;;;7.70;87.90;;;;;;5014402;28;20213;-72
2022/03/22 05:38:31;;;;;;;7.72;6.90;;;7.70;87.90;;;;;;5015638;28;20220;-71
2022/03/22 05:40:58;;;;;;;7.45;6.72;;;7.70;87.40;;;;;;5020254;28;20637;-72
2022/03/22 05:43:26;;;;;;;8.23;6.53;;;7.60;87.60;;;;;;5021901;28;20238;-72
2022/03/22 05:45:53;;;;;;;8.60;6.10;;;7.70;87.40;;;;;;5026980;28;20202;-71
2022/03/22 05:48:20;;;;;;;6.70;5.18;;;7.70;87.50;;;;;;5027961;28;20407;-71
2022/03/22 05:50:47;;;;;;;8.70;6.22;;;7.70;87.10;;;;;;5026378;28;20202;-71
2022/03/22 05:53:14;;;;;;;6.07;5.38;;;7.70;86.70;;;;;;5028363;28;20687;-70
2022/03/22 05:55:42;;;;;;;8.15;6.13;;;7.70;87.50;;;;;;5026638;28;20379;-70
2022/03/22 05:58:09;;;;;;;8.63;6.05;;;7.70;87.60;;;;;;5022978;28;20289;-71
2022/03/22 06:00:37;;;;;;;8.43;6.90;;;7.70;89.00;;;;;;5022524;28;20267;-73
2022/03/22 06:03:04;;;;;;;6.75;5.70;;;7.60;90.30;;;;;;5029768;28;20228;-71
2022/03/22 06:05:31;;;;;;;8.13;6.55;;;7.60;90.20;;;;;;5028822;28;20252;-70
2022/03/22 06:07:59;;;;;;;7.45;6.75;;;7.60;90.80;;;;;;5026493;28;20221;-71
2022/03/22 06:10:27;;;;;;;10.48;7.05;;;7.60;90.80;;;;;;5026607;28;20215;-67
2022/03/22 06:12:55;;;;;;;7.75;6.80;;;7.60;90.20;;;;;;5028402;28;20516;-67
2022/03/22 06:15:24;;;;;;;15.70;6.85;;;7.60;90.00;;;;;;5030602;28;20629;-65
2022/03/22 06:17:55;;;;;;;14.82;7.00;;;7.60;90.10;;;;;;5027681;28;20214;-67
2022/03/22 06:20:24;;;;;;;11.73;7.38;;;7.60;89.10;;;;;;5029151;28;20213;-65
2022/03/22 06:22:51;;;;;;;13.27;7.57;;;7.70;88.70;;;;;;5037807;28;20304;-69
2022/03/22 06:25:19;;;;;;;8.75;7.53;;;7.70;88.10;;;;;;5034899;28;20210;-66
2022/03/22 06:27:47;;;;;;;13.88;7.00;;;7.80;88.00;;;;;;5029698;28;20276;-67
2022/03/22 06:30:15;;;;;;;10.05;7.65;;;7.80;87.80;;;;;;5032454;28;20206;-68
2022/03/22 06:32:42;;;;;;;10.68;7.03;;;7.80;88.10;;;;;;5023457;28;20206;-67
2022/03/22 06:35:11;;;;;;;10.52;6.95;;;7.90;88.10;;;;;;5036667;28;20589;-70
2022/03/22 06:37:38;;;;;;;11.18;7.00;;;7.90;88.00;;;;;;5030089;28;20212;-66
2022/03/22 06:40:07;;;;;;;12.48;7.18;;;7.90;88.00;;;;;;5048743;28;20267;-68
2022/03/22 06:42:34;;;;;;;8.18;7.38;;;7.90;88.20;;;;;;5034976;28;20274;-68
2022/03/22 06:45:03;;;;;;;11.50;6.47;;;8.00;87.50;;;;;;5039584;28;20635;-68
2022/03/22 06:47:29;;;;;;;14.98;7.25;;;8.10;87.40;;;;;;5024374;28;20213;-67
2022/03/22 06:49:56;;;;;;;21.25;7.55;;;8.10;87.40;;;;;;5025514;28;20229;-67
2022/03/22 06:52:24;;;;;;;12.77;7.35;;;8.20;87.00;;;;;;5028007;28;20218;-68
2022/03/22 06:54:51;;;;;;;10.40;6.93;;;8.20;86.70;;;;;;5036336;28;20387;-68
2022/03/22 06:57:18;;;;;;;10.82;8.20;;;8.20;87.70;;;;;;5028445;28;20202;-68
2022/03/22 06:59:44;;;;;;;9.35;7.15;;;8.30;87.60;;;;;;5030821;28;20297;-67
2022/03/22 07:02:11;;;;;;;10.35;7.65;;;8.40;87.00;;;;;;5026767;28;20275;-67
2022/03/22 07:04:38;;;;;;;8.35;6.75;;;8.40;87.50;;;;;;5025404;28;20706;-68
2022/03/22 07:07:05;;;;;;;13.43;6.43;;;8.50;87.40;;;;;;5026055;28;20341;-68
2022/03/22 07:09:33;;;;;;;9.82;6.03;;;8.60;87.70;;;;;;5039855;28;20237;-66
2022/03/22 07:12:00;;;;;;;7.25;5.10;;;8.60;86.90;;;;;;5033183;28;20206;-68
2022/03/22 07:14:28;;;;;;;8.93;6.78;;;8.70;86.40;;;;;;5025954;28;20299;-68
2022/03/22 07:16:55;;;;;;;7.80;6.30;;;8.80;86.10;;;;;;5029964;28;20202;-68
2022/03/22 07:19:24;;;;;;;8.98;6.72;;;8.90;85.50;;;;;;5030061;28;20226;-67
2022/03/22 07:21:51;;;;;;;7.85;5.68;;;9.00;85.00;;;;;;5036284;28;20278;-67
2022/03/22 07:24:19;;;;;;;10.33;7.47;;;9.10;84.70;;;;;;5028404;28;20583;-68
2022/03/22 07:26:47;;;;;;;8.45;6.60;;;9.20;84.60;;;;;;5026241;28;20539;-68
2022/03/22 07:29:14;;;;;;;6.60;6.00;;;9.30;84.50;;;;;;5025731;28;20238;-68
2022/03/22 07:31:41;;;;;;;8.00;7.15;;;9.40;84.60;;;;;;5025274;28;20260;-66
2022/03/22 07:34:11;;;;;;;6.45;5.55;;;9.50;84.30;;;;;;5026986;28;20222;-68
2022/03/22 07:36:39;;;;;;;8.45;7.65;;;9.60;84.10;;;;;;5029665;28;20202;-66
2022/03/22 07:39:07;;;;;;;7.10;6.25;;;9.70;84.70;;;;;;5028857;28;20285;-67
2022/03/22 07:41:34;;;;;;;8.20;6.50;;;9.70;84.20;;;;;;5029414;28;20313;-67
2022/03/22 07:44:03;;;;;;;6.20;5.30;;;9.80;83.60;;;;;;5029960;28;20863;-67
2022/03/22 07:46:30;;;;;;;8.63;5.77;;;10.00;81.90;;;;;;5026217;28;20452;-68
2022/03/22 07:52:57;;;;;;;6.53;5.83;;;10.10;81.60;;;;;;5031683;28;20589;-68
2022/03/22 07:54:37;;;;;;;8.10;6.13;;;10.30;81.10;;;;;;4981912;28;20481;-67
2022/03/22 07:57:04;;;;;;;6.97;6.37;;;10.50;80.90;;;;;;5023999;28;20595;-67
2022/03/22 07:59:32;;;;;;;9.60;6.50;;;10.60;80.00;;;;;;5027017;28;20477;-68
2022/03/22 08:02:00;;;;;;;6.43;5.83;;;10.70;80.10;;;;;;5027546;28;20529;-69
2022/03/22 08:04:27;;;;;;;7.50;6.50;;;11.00;79.50;;;;;;5027160;28;20556;-69
2022/03/22 08:06:54;;;;;;;11.27;6.50;;;11.10;78.40;;;;;;5024928;28;20907;-70
2022/03/22 08:09:20;;;;;;;6.80;6.10;;;11.30;78.40;;;;;;5029321;28;20541;-69
2022/03/22 08:11:48;;;;;;;7.40;6.53;;;11.60;78.00;;;;;;5019612;28;20470;-69
2022/03/22 08:14:14;;;;;;;6.57;5.70;;;11.70;77.00;;;;;;5021295;28;20485;-67
2022/03/22 08:16:42;;;;;;;14.40;5.93;;;11.80;77.60;;;;;;5023484;28;20454;-70
2022/03/22 08:19:11;;;;;;;11.57;6.73;;;12.00;76.30;;;;;;5027994;28;20500;-69
2022/03/22 08:21:38;;;;;;;9.50;7.17;;;12.20;76.20;;;;;;5023639;28;20446;-70
2022/03/22 08:24:06;;;;;;;7.10;6.03;;;12.40;76.30;;;;;;5021701;28;20526;-69
2022/03/22 08:26:32;;;;;;;6.70;6.00;;;12.60;75.20;;;;;;5025848;28;20515;-68
2022/03/22 08:28:59;;;;;;;6.43;5.63;;;12.80;74.60;;;;;;5026026;28;20519;-70
2022/03/22 08:31:26;;;;;;;10.53;5.90;;;12.80;75.10;;;;;;5026331;28;20915;-70
2022/03/22 08:33:56;;;;;;;6.93;5.93;;;12.90;74.40;;;;;;5019248;28;20738;-70
2022/03/22 08:36:23;;;;;;;12.77;6.03;;;13.10;74.90;;;;;;5018230;28;20562;-68
2022/03/22 08:38:51;;;;;;;9.40;6.10;;;13.30;74.60;;;;;;5027179;28;20480;-69
2022/03/22 08:41:18;;;;;;;8.80;6.77;;;13.50;75.30;;;;;;5026099;28;20948;-69
2022/03/22 08:43:44;;;;;;;7.20;6.20;;;13.70;73.70;;;;;;5018178;28;20453;-69
2022/03/22 08:46:14;;;;;;;8.63;6.60;;;13.80;73.30;;;;;;5026286;28;20478;-70
2022/03/22 08:48:40;;;;;;;7.67;6.10;;;13.90;72.40;;;;;;5013064;28;20546;-70
2022/03/22 08:51:08;;;;;;;8.20;6.17;;;14.00;71.80;;;;;;5026442;28;20471;-70
2022/03/22 08:53:35;;;;;;;6.97;6.27;;;14.10;71.50;;;;;;5023135;28;20807;-69
2022/03/22 08:56:03;;;;;;;8.10;6.23;;;14.30;71.50;;;;;;5025101;28;20913;-70
2022/03/22 08:58:31;;;;;;;6.50;5.90;;;14.40;71.10;;;;;;5024150;28;20480;-70
2022/03/22 09:00:57;;;;;;;8.93;6.60;;;14.50;70.60;;;;;;5033740;28;20452;-70
2022/03/22 09:03:26;;;;;;;8.13;6.03;;;14.60;70.10;;;;;;5028686;28;20522;-70
2022/03/22 09:06:12;;;;;;;7.43;5.40;;;14.80;70.30;;;;;;5033894;28;20459;-70
2022/03/22 09:08:42;;;;;;;7.20;6.60;;;14.90;69.60;;;;;;5026454;28;20469;-70
2022/03/22 09:11:09;;;;;;;7.40;6.13;;;15.00;69.40;;;;;;5033921;28;20535;-70
2022/03/22 09:13:37;;;;;;;9.83;6.83;;;15.10;69.30;;;;;;5024268;28;20494;-69
2022/03/22 09:16:05;;;;;;;7.83;6.50;;;15.30;69.10;;;;;;5023096;28;20508;-69
2022/03/22 09:18:32;;;;;;;6.93;6.23;;;15.50;68.40;;;;;;5023885;28;20481;-69
2022/03/22 09:21:00;;;;;;;6.80;6.20;;;15.70;67.00;;;;;;5024946;28;20457;-70
2022/03/22 09:23:27;;;;;;;8.23;5.67;;;15.80;66.60;;;;;;5024082;28;20565;-70
2022/03/22 09:25:55;;;;;;;10.37;6.37;;;16.00;67.90;;;;;;5023658;28;20449;-70
2022/03/22 09:28:22;;;;;;;6.63;5.87;;;16.20;66.60;;;;;;5027574;28;20507;-70
2022/03/22 09:30:49;;;;;;;6.70;6.10;;;16.40;66.50;;;;;;5023592;28;20540;-70
2022/03/22 09:33:17;;;;;;;8.40;5.60;;;16.40;65.70;;;;;;5023484;28;20469;-70
2022/03/22 09:35:43;;;;;;;7.80;6.40;;;16.50;65.50;;;;;;5023936;28;20544;-69
2022/03/22 09:38:10;;;;;;;7.73;6.80;;;16.80;65.70;;;;;;5019277;28;20473;-70
2022/03/22 09:40:37;;;;;;;7.00;6.30;;;16.90;64.60;;;;;;5025547;28;20460;-68
2022/03/22 09:43:07;;;;;;;7.93;6.93;;;17.00;64.90;;;;;;5009902;28;20913;-69
2022/03/22 09:45:34;;;;;;;7.87;5.30;;;17.00;62.30;;;;;;5022672;28;20499;-68
2022/03/22 09:48:01;;;;;;;14.90;6.50;;;17.00;62.60;;;;;;5023218;28;20502;-68
2022/03/22 09:53:10;;;;;;;8.53;7.63;;;17.00;61.60;;;;;;5021880;28;20433;-66
2022/03/22 09:55:37;;;;;;;8.43;6.07;;;17.10;61.80;;;;;;5022957;28;20614;-65
2022/03/22 09:58:06;;;;;;;7.50;5.83;;;17.20;60.30;;;;;;5022654;28;20514;-65
2022/03/22 10:00:32;;;;;;;7.60;6.13;;;17.10;59.70;;;;;;5024530;28;20484;-64
2022/03/22 10:03:00;;;;;;;8.70;6.60;;;17.40;59.70;;;;;;5021603;28;20484;-64
2022/03/22 10:05:28;;;;;;;7.37;6.20;;;17.40;59.20;;;;;;5024039;28;20459;-71
2022/03/22 10:07:59;;;;;;;6.80;5.37;;;17.50;58.70;;;;;;5021249;28;20606;-74
2022/03/22 10:10:27;;;;;;;8.30;6.60;;;17.80;58.30;;;;;;5022089;28;20551;-70
2022/03/22 10:12:58;;;;;;;6.83;5.90;;;18.00;59.30;;;;;;5021771;28;20449;-68
2022/03/22 10:15:31;;;;;;;7.97;6.40;;;18.30;58.30;;;;;;5020217;28;20491;-72
2022/03/22 10:18:06;;;;;;;7.40;5.87;;;18.40;57.50;;;;;;5020879;28;20515;-66
2022/03/22 10:20:35;;;;;;;5.60;5.00;;;18.50;56.80;;;;;;5021142;28;20535;-69
2022/03/22 10:23:04;;;;;;;12.43;6.23;;;18.60;57.50;;;;;;5032753;28;20448;-67
2022/03/22 10:25:32;;;;;;;9.73;7.07;;;18.90;56.40;;;;;;5026225;28;20459;-67
2022/03/22 10:28:01;;;;;;;6.50;5.90;;;19.10;56.20;;;;;;5026368;28;20472;-71
2022/03/22 10:30:31;;;;;;;8.23;6.40;;;19.30;55.80;;;;;;5033481;28;20481;-64
2022/03/22 10:32:59;;;;;;;5.97;5.37;;;19.50;56.50;;;;;;5026699;28;20449;-67
2022/03/22 10:35:27;;;;;;;6.83;6.13;;;19.70;56.70;;;;;;5034405;28;20483;-65
2022/03/22 10:37:56;;;;;;;6.77;6.20;;;19.90;56.10;;;;;;5029796;28;20602;-72
2022/03/22 10:40:28;;;;;;;6.30;5.80;;;20.00;56.70;;;;;;5025025;28;20942;-67
2022/03/22 10:42:57;;;;;;;7.90;5.97;;;20.30;56.40;;;;;;5027365;28;21074;-65
2022/03/22 10:45:24;;;;;;;6.90;6.30;;;20.50;55.80;;;;;;5033328;28;20449;-66
2022/03/22 10:47:52;;;;;;;7.30;5.73;;;20.50;55.30;;;;;;5024808;28;20451;-67
2022/03/22 10:50:18;;;;;;;14.87;6.10;;;20.70;56.40;;;;;;5036516;28;20459;-70
2022/03/22 10:52:56;;;;;;;5.80;5.23;;;20.90;55.90;;;;;;5027013;28;20447;-71
2022/03/22 10:55:24;;;;;;;6.13;5.53;;;20.90;55.00;;;;;;5037143;28;20503;-70
2022/03/22 10:57:54;;;;;;;8.00;5.90;;;20.80;54.40;;;;;;5024010;28;20526;-71
2022/03/22 11:00:21;;;;;;;10.37;6.07;;;20.50;53.40;;;;;;5024814;28;20456;-72
2022/03/22 11:02:50;;;;;;;7.43;5.50;;;20.60;55.00;;;;;;5023889;28;20449;-72
2022/03/22 11:05:20;;;;;;;6.13;5.53;;;20.70;53.90;;;;;;5037897;28;20540;-74
2022/03/22 11:07:48;;;;;;;6.43;5.60;;;20.80;55.50;;;;;;5026566;28;20453;-70
2022/03/22 11:10:16;;;;;;;7.23;5.53;;;21.00;54.90;;;;;;5024977;28;20529;-68
2022/03/22 11:12:43;;;;;;;7.03;5.17;;;21.10;53.70;;;;;;5024892;28;20457;-69
2022/03/22 11:15:13;;;;;;;6.07;5.40;;;21.00;55.30;;;;;;5024334;28;20496;-69
2022/03/22 11:17:41;;;;;;;5.37;4.90;;;21.10;55.00;;;;;;5022658;28;20951;-70
2022/03/22 11:20:12;;;;;;;5.97;5.47;;;21.30;54.80;;;;;;5021343;28;20547;-71
2022/03/22 11:22:47;;;;;;;9.43;6.63;;;21.50;53.60;;;;;;5031787;28;20833;-70
2022/03/22 11:25:18;;;;;;;7.37;5.37;;;21.80;53.70;;;;;;5026428;28;20524;-70
2022/03/22 11:27:56;;;;;;;5.50;4.90;;;22.00;54.50;;;;;;5020607;28;21004;-69
2022/03/22 11:30:23;;;;;;;6.37;5.50;;;22.20;53.70;;;;;;5027562;28;20878;-69
2022/03/22 11:35:51;;;;;;;5.53;5.03;;;23.20;53.20;;;;;;5012923;28;20626;-69
2022/03/22 11:38:49;;;;;;;6.07;5.47;;;23.70;52.20;;;;;;5025792;28;20485;-69
2022/03/22 11:44:10;;;;;;;6.63;4.70;;;24.90;50.30;;;;;;5036098;28;21003;-69
2022/03/22 11:46:37;;;;;;;5.80;5.20;;;25.40;49.80;;;;;;5026721;28;20453;-68
2022/03/22 11:49:18;;;;;;;5.67;4.07;;;25.90;49.80;;;;;;5026804;28;20550;-69
2022/03/22 11:51:50;;;;;;;5.43;4.40;;;26.80;53.50;;;;;;5020573;28;20469;-69
2022/03/22 11:54:21;;;;;;;5.20;4.80;;;27.50;48.20;;;;;;5022260;28;20872;-69
2022/03/22 11:56:49;;;;;;;5.30;4.30;;;28.10;48.70;;;;;;5028276;28;20584;-68
2022/03/22 11:59:17;;;;;;;3.93;3.37;;;28.90;47.20;;;;;;5024538;28;20540;-69
2022/03/22 12:01:58;;;;;;;4.67;4.20;;;29.70;46.50;;;;;;5022689;28;20544;-69
2022/03/22 12:04:38;;;;;;;4.73;3.97;;;30.40;45.00;;;;;;5023329;28;20567;-69
2022/03/22 12:07:06;;;;;;;4.03;3.70;;;31.20;43.20;;;;;;5030922;28;21089;-69
2022/03/22 12:09:34;;;;;;;4.30;3.90;;;31.90;41.20;;;;;;5024882;28;20579;-68
2022/03/22 12:12:02;;;;;;;7.20;4.77;;;31.80;41.50;;;;;;5037304;28;20542;-68
2022/03/22 12:14:30;;;;;;;4.67;3.40;;;31.70;40.00;;;;;;5012300;28;20513;-68
2022/03/22 12:16:57;;;;;;;4.07;3.77;;;32.20;41.20;;;;;;5019886;28;20870;-69
2022/03/22 12:19:28;;;;;;;4.60;4.20;;;33.00;41.40;;;;;;5023646;28;20443;-69
2022/03/22 12:21:55;;;;;;;3.93;3.40;;;33.20;37.60;;;;;;5024157;28;20427;-69
2022/03/22 12:24:23;;;;;;;3.50;3.23;;;32.60;36.90;;;;;;5023544;28;20471;-70
2022/03/22 12:26:52;;;;;;;4.40;4.00;;;31.50;36.60;;;;;;5022587;28;20411;-69
2022/03/22 12:29:19;;;;;;;4.13;3.73;;;31.00;36.60;;;;;;5023822;28;20451;-71
2022/03/22 12:31:49;;;;;;;4.50;3.40;;;31.10;36.20;;;;;;5023516;28;20553;-69
2022/03/22 12:34:16;;;;;;;4.17;3.73;;;31.20;36.20;;;;;;5019441;28;20490;-69
2022/03/22 12:36:43;;;;;;;3.90;3.60;;;32.00;35.60;;;;;;5030964;28;20481;-71
2022/03/22 12:39:10;;;;;;;4.43;4.03;;;32.10;35.50;;;;;;5024037;28;20443;-69
2022/03/22 12:41:37;;;;;;;4.20;3.70;;;31.30;35.40;;;;;;5024040;28;20505;-70
2022/03/22 12:44:06;;;;;;;3.87;3.57;;;32.00;37.20;;;;;;5024142;28;20435;-70
2022/03/22 12:46:33;;;;;;;3.73;3.43;;;31.70;34.70;;;;;;5020216;28;20428;-71
2022/03/22 12:49:00;;;;;;;4.00;3.70;;;31.70;34.60;;;;;;5021424;28;20446;-71
2022/03/22 12:51:27;;;;;;;3.60;3.30;;;32.90;35.10;;;;;;5027175;28;20428;-70
2022/03/22 12:53:54;;;;;;;5.07;4.37;;;32.40;32.80;;;;;;5019975;28;20424;-69
2022/03/22 12:56:22;;;;;;;4.10;3.83;;;32.00;33.60;;;;;;5025514;28;20474;-71
2022/03/22 12:58:49;;;;;;;3.97;3.67;;;32.60;33.50;;;;;;5023072;28;20797;-69
2022/03/22 13:01:18;;;;;;;4.13;3.63;;;32.00;33.20;;;;;;5022405;28;20441;-71
2022/03/22 13:03:45;;;;;;;3.80;3.50;;;32.30;33.10;;;;;;5021593;28;20444;-69
2022/03/22 13:06:11;;;;;;;4.63;4.23;;;32.90;32.40;;;;;;5018956;28;20962;-70
2022/03/22 13:11:30;;;;;;;5.13;4.40;;;31.10;31.30;;;;;;5021242;28;20876;-71
2022/03/22 13:16:40;;;;;;;4.03;3.70;;;30.80;33.20;;;;;;4987600;28;20473;-68
2022/03/22 13:19:07;;;;;;;4.53;4.13;;;31.80;32.20;;;;;;5016653;28;20443;-70
2022/03/22 13:21:36;;;;;;;3.67;3.37;;;31.60;32.00;;;;;;5017774;28;20485;-68
2022/03/22 13:24:04;;;;;;;4.73;4.23;;;30.90;31.60;;;;;;5020941;28;20473;-69
2022/03/22 13:26:33;;;;;;;5.47;4.77;;;30.90;32.50;;;;;;5019813;28;21033;-70
2022/03/22 13:29:09;;;;;;;4.87;4.47;;;30.40;32.50;;;;;;5020218;28;20443;-68
2022/03/22 13:31:35;;;;;;;5.30;4.80;;;30.00;32.90;;;;;;5025294;28;20423;-68
2022/03/22 13:34:03;;;;;;;4.00;3.70;;;29.80;32.50;;;;;;5022160;28;20438;-67
2022/03/22 13:36:30;;;;;;;5.03;4.53;;;30.50;32.60;;;;;;5022047;28;20455;-66